CYBG

CFB Bagotville

Code ICAO CYBG
Code IATA YBG
Nom CFB Bagotville
Emplacement Bagotville, Quebec, CA
Élévation 522 pieds / 159.1 mètres
Latitude 48.33055556
Longitude -70.99638889
METAR CYBG 232300Z 10017G24KT 25SM SCT060 OVC080 12/11 A3011 RMK SC3AC5 SLP200
Informations extras Afficher cartes et CFS
Afficher NOTAMS
Piste Longueur Largeur Surface Élévation
11 10000 ft 150 ft ASP/CON 519 ft
18 6000 ft 150 ft ASP 520 ft
29 10000 ft 150 ft ASP/CON 511 ft
36 6000 ft 150 ft ASP 522 ft

Routes obligatoires

CFB Bagotville

Direction Destination Niveau Remarque Type Route
DEP TO CYQB H&L RNAV VBS TADES KAROT ARR
DEP TO CYUL H&L RNAV VBS OBTEK DEBUS OMBRE ARR